Time,TemperatureF,DewpointF,PressureIn,WindDirection,WindDirectionDegrees,WindSpeedMPH,WindSpeedGustMPH,Humidity,HourlyPrecipIn,Conditions,Clouds,dailyrainin,SoftwareType,DateUTC
2013-11-16 00:13:00,51.0,51.0,-100.00,ESE,121,2.0,3.0,100,0.11,,,0.61,,2013-11-16 05:13:00,
2013-11-16 00:23:00,51.0,51.0,-100.00,South,176,4.0,6.0,100,0.04,,,0.61,,2013-11-16 05:23:00,
2013-11-16 00:34:00,51.0,51.0,-100.00,South,176,4.0,6.0,100,0.04,,,0.61,,2013-11-16 05:34:00,
2013-11-16 00:52:00,50.0,50.0,-100.00,South,172,4.0,5.0,100,0.28,,,0.69,,2013-11-16 05:52:00,
2013-11-16 01:02:00,50.0,50.0,-100.00,South,172,4.0,5.0,100,0.28,,,0.69,,2013-11-16 06:02:00,
2013-11-16 01:22:00,50.0,50.0,-100.00,South,174,4.0,5.0,100,0.00,,,0.70,,2013-11-16 06:22:00,
2013-11-16 01:32:00,50.0,50.0,-100.00,South,174,4.0,5.0,100,0.00,,,0.70,,2013-11-16 06:32:00,
2013-11-16 01:52:00,50.0,50.0,-100.00,South,181,5.0,6.0,100,0.00,,,0.70,,2013-11-16 06:52:00,
2013-11-16 02:10:00,49.0,49.0,-100.00,SSW,205,1.0,2.0,100,0.01,,,0.79,,2013-11-16 07:10:00,
2013-11-16 02:11:00,49.0,49.0,-100.00,South,185,4.0,5.0,100,0.00,,,0.76,,2013-11-16 07:11:00,
2013-11-16 02:22:00,49.0,49.0,-100.00,South,185,4.0,5.0,100,0.00,,,0.76,,2013-11-16 07:22:00,
2013-11-16 02:52:00,49.0,49.0,-100.00,SSW,205,1.0,2.0,100,0.01,,,0.79,,2013-11-16 07:52:00,
2013-11-16 03:01:00,49.0,49.0,-100.00,SSW,205,1.0,2.0,100,0.01,,,0.79,,2013-11-16 08:01:00,
2013-11-16 03:52:00,49.0,49.0,-100.00,NNW,344,2.0,2.0,100,0.00,,,0.79,,2013-11-16 08:52:00,
2013-11-16 04:11:00,48.0,48.0,-100.00,NNW,344,0.0,0.0,100,0.00,,,0.79,,2013-11-16 09:11:00,
2013-11-16 04:22:00,48.0,48.0,-100.00,NNW,342,0.0,0.0,100,0.00,,,0.79,,2013-11-16 09:22:00,
2013-11-16 04:33:00,48.0,48.0,-100.00,NNW,342,0.0,0.0,100,0.00,,,0.79,,2013-11-16 09:33:00,
2013-11-16 04:53:00,48.0,48.0,-100.00,NNW,333,0.0,1.0,100,0.00,,,0.79,,2013-11-16 09:53:00,
2013-11-16 05:13:00,48.0,48.0,-100.00,NNW,336,0.0,0.0,100,0.00,,,0.79,,2013-11-16 10:13:00,
2013-11-16 05:23:00,49.0,49.0,-100.00,NNE,18,0.0,1.0,100,0.00,,,0.79,,2013-11-16 10:23:00,
2013-11-16 05:33:00,49.0,49.0,-100.00,NNE,18,0.0,1.0,100,0.00,,,0.79,,2013-11-16 10:33:00,
2013-11-16 05:52:00,49.0,49.0,-100.00,NE,34,2.0,2.0,100,0.00,,,0.79,,2013-11-16 10:52:00,
2013-11-16 06:10:00,49.0,49.0,-100.00,NE,38,1.0,2.0,100,0.00,,,0.79,,2013-11-16 11:10:00,
2013-11-16 06:12:00,49.0,49.0,-100.00,NNW,336,0.0,0.0,100,0.00,,,0.79,,2013-11-16 11:12:00,
2013-11-16 06:22:00,49.0,49.0,-100.00,North,349,2.0,2.0,100,0.00,,,0.79,,2013-11-16 11:22:00,
2013-11-16 06:32:00,49.0,49.0,-100.00,North,349,2.0,2.0,100,0.00,,,0.79,,2013-11-16 11:32:00,
2013-11-16 06:53:00,49.0,49.0,-100.00,NE,38,1.0,2.0,100,0.00,,,0.79,,2013-11-16 11:53:00,
2013-11-16 07:02:00,49.0,49.0,-100.00,NE,38,1.0,2.0,100,0.00,,,0.79,,2013-11-16 12:02:00,
2013-11-16 07:22:00,49.0,49.0,-100.00,ESE,107,2.0,2.0,100,0.00,,,0.79,,2013-11-16 12:22:00,
2013-11-16 07:32:00,49.0,49.0,-100.00,ESE,107,2.0,2.0,100,0.00,,,0.79,,2013-11-16 12:32:00,
2013-11-16 07:50:00,49.0,49.0,-100.00,NNE,21,2.0,4.0,100,0.00,,,0.79,,2013-11-16 12:50:00,
2013-11-16 07:52:00,49.0,49.0,-100.00,NNW,344,3.0,4.0,100,0.00,,,0.79,,2013-11-16 12:52:00,
2013-11-16 08:11:00,49.0,49.0,-100.00,NNE,18,1.0,2.0,100,0.00,,,0.79,,2013-11-16 13:11:00,
2013-11-16 08:22:00,49.0,49.0,-100.00,NNE,21,2.0,4.0,100,0.00,,,0.79,,2013-11-16 13:22:00,
2013-11-16 08:32:00,49.0,49.0,-100.00,NNE,21,2.0,4.0,100,0.00,,,0.79,,2013-11-16 13:32:00,
2013-11-16 08:42:00,49.0,49.0,-100.00,NNE,21,2.0,4.0,100,0.00,,,0.79,,2013-11-16 13:42:00,
2013-11-16 09:11:00,49.0,49.0,-100.00,NE,48,2.0,2.0,100,0.00,,,0.79,,2013-11-16 14:11:00,
2013-11-16 09:22:00,49.0,49.0,-100.00,NE,48,2.0,2.0,100,0.00,,,0.79,,2013-11-16 14:22:00,
2013-11-16 09:30:00,50.0,50.0,-100.00,NE,54,3.0,4.0,100,0.00,,,0.79,,2013-11-16 14:30:00,
2013-11-16 09:52:00,49.0,49.0,-100.00,NE,35,3.0,4.0,100,0.00,,,0.79,,2013-11-16 14:52:00,
2013-11-16 10:11:00,50.0,50.0,-100.00,NE,54,3.0,4.0,100,0.00,,,0.79,,2013-11-16 15:11:00,
2013-11-16 10:22:00,50.0,50.0,-100.00,NE,54,3.0,4.0,100,0.00,,,0.79,,2013-11-16 15:22:00,
2013-11-16 10:54:00,50.0,50.0,-100.00,ENE,68,2.0,3.0,100,0.00,,,0.79,,2013-11-16 15:54:00,
2013-11-16 11:13:00,50.0,50.0,-100.00,NE,52,2.0,3.0,100,0.00,,,0.79,,2013-11-16 16:13:00,
2013-11-16 11:23:00,51.0,51.0,-100.00,NNW,336,2.0,2.0,100,0.00,,,0.79,,2013-11-16 16:23:00,
2013-11-16 11:33:00,51.0,51.0,-100.00,NNW,336,2.0,2.0,100,0.00,,,0.79,,2013-11-16 16:33:00,
2013-11-16 11:51:00,52.0,51.0,-100.00,ENE,58,1.0,2.0,97,0.00,,,0.79,,2013-11-16 16:51:00,
2013-11-16 11:53:00,52.0,52.0,-100.00,NW,312,1.0,2.0,100,0.00,,,0.79,,2013-11-16 16:53:00,
2013-11-16 12:13:00,51.0,51.0,-100.00,ESE,110,1.0,2.0,99,0.00,,,0.79,,2013-11-16 17:13:00,
2013-11-16 12:23:00,51.0,51.0,-100.00,ESE,110,1.0,2.0,99,0.00,,,0.79,,2013-11-16 17:23:00,
2013-11-16 12:43:00,52.0,51.0,-100.00,ENE,58,1.0,2.0,97,0.00,,,0.79,,2013-11-16 17:43:00,
2013-11-16 13:12:00,53.0,52.0,-100.00,NW,319,1.0,2.0,97,0.00,,,0.79,,2013-11-16 18:12:00,
2013-11-16 13:24:00,53.0,52.0,-100.00,NW,319,1.0,2.0,97,0.00,,,0.79,,2013-11-16 18:24:00,
2013-11-16 13:52:00,54.0,52.0,-100.00,SE,127,0.0,2.0,90,0.00,,,0.79,,2013-11-16 18:52:00,
2013-11-16 14:12:00,54.0,52.0,-100.00,South,175,2.0,3.0,91,0.00,,,0.79,,2013-11-16 19:12:00,
2013-11-16 14:22:00,54.0,52.0,-100.00,South,175,2.0,3.0,91,0.00,,,0.79,,2013-11-16 19:22:00,
2013-11-16 14:53:00,55.0,52.0,-100.00,SSW,208,1.0,3.0,89,0.00,,,0.79,,2013-11-16 19:53:00,
2013-11-16 15:12:00,54.0,52.0,-100.00,South,181,2.0,3.0,91,0.00,,,0.79,,2013-11-16 20:12:00,
2013-11-16 15:22:00,54.0,52.0,-100.00,South,181,2.0,3.0,91,0.00,,,0.79,,2013-11-16 20:22:00,
2013-11-16 16:12:00,55.0,53.0,-100.00,SSW,199,3.0,4.0,93,0.00,,,0.79,,2013-11-16 21:12:00,
2013-11-16 16:22:00,54.0,53.0,-100.00,SSW,209,1.0,2.0,95,0.00,,,0.79,,2013-11-16 21:22:00,
2013-11-16 16:34:00,54.0,53.0,-100.00,SSW,209,1.0,2.0,95,0.00,,,0.79,,2013-11-16 21:34:00,
2013-11-16 16:54:00,54.0,53.0,-100.00,SSW,213,2.0,4.0,96,0.00,,,0.79,,2013-11-16 21:54:00,
2013-11-16 17:13:00,54.0,53.0,-100.00,SSW,202,2.0,2.0,98,0.00,,,0.79,,2013-11-16 22:13:00,
2013-11-16 17:24:00,54.0,53.0,-100.00,SSW,202,2.0,2.0,98,0.00,,,0.79,,2013-11-16 22:24:00,
2013-11-16 17:53:00,53.0,53.0,-100.00,SSW,208,0.0,1.0,100,0.00,,,0.79,,2013-11-16 22:53:00,
2013-11-16 18:13:00,53.0,53.0,-100.00,NNW,328,0.0,0.0,100,0.00,,,0.79,,2013-11-16 23:13:00,
2013-11-16 18:22:00,53.0,53.0,-100.00,NW,311,0.0,1.0,100,0.00,,,0.79,,2013-11-16 23:22:00,
2013-11-16 18:34:00,53.0,53.0,-100.00,NW,311,0.0,1.0,100,0.00,,,0.79,,2013-11-16 23:34:00,
2013-11-16 18:53:00,53.0,53.0,-100.00,WSW,253,1.0,2.0,100,0.00,,,0.79,,2013-11-16 23:53:00,
2013-11-16 19:12:00,53.0,53.0,-100.00,NE,51,0.0,2.0,100,0.00,,,0.79,,2013-11-17 00:12:00,
2013-11-16 19:22:00,53.0,53.0,-100.00,WSW,240,1.0,2.0,100,0.00,,,0.79,,2013-11-17 00:22:00,
2013-11-16 19:32:00,53.0,53.0,-100.00,WSW,240,1.0,2.0,100,0.00,,,0.79,,2013-11-17 00:32:00,
2013-11-16 19:52:00,53.0,53.0,-100.00,South,178,2.0,2.0,100,0.00,,,0.79,,2013-11-17 00:52:00,
2013-11-16 20:12:00,53.0,53.0,-100.00,SSW,209,3.0,5.0,100,0.00,,,0.76,,2013-11-17 01:12:00,
2013-11-16 20:22:00,53.0,53.0,-100.00,South,191,4.0,5.0,100,0.00,,,0.76,,2013-11-17 01:22:00,
2013-11-16 20:32:00,53.0,53.0,-100.00,South,191,4.0,5.0,100,0.00,,,0.76,,2013-11-17 01:32:00,
2013-11-16 20:52:00,53.0,53.0,-100.00,South,171,4.0,5.0,100,0.00,,,0.74,,2013-11-17 01:52:00,
2013-11-16 21:12:00,53.0,53.0,-100.00,SSE,157,3.0,4.0,100,0.00,,,0.72,,2013-11-17 02:12:00,
2013-11-16 21:22:00,53.0,53.0,-100.00,South,185,5.0,7.0,100,0.00,,,0.69,,2013-11-17 02:22:00,
2013-11-16 21:32:00,53.0,53.0,-100.00,South,185,5.0,7.0,100,0.00,,,0.69,,2013-11-17 02:32:00,
2013-11-16 21:52:00,53.0,53.0,-100.00,SSE,168,4.0,5.0,100,0.00,,,0.67,,2013-11-17 02:52:00,
2013-11-16 22:12:00,53.0,53.0,-100.00,South,186,4.0,6.0,100,0.00,,,0.63,,2013-11-17 03:12:00,
2013-11-16 22:22:00,53.0,53.0,-100.00,SSW,200,5.0,7.0,100,0.00,,,0.60,,2013-11-17 03:22:00,
2013-11-16 22:44:00,53.0,53.0,-100.00,WSW,241,1.0,3.0,100,0.00,,,0.56,,2013-11-17 03:44:00,
2013-11-16 22:56:00,53.0,53.0,-100.00,WSW,241,1.0,3.0,100,0.00,,,0.56,,2013-11-17 03:56:00,
2013-11-16 23:03:00,-999.0,-99.9,-100.00,South,182,5.0,7.0,-999,-99.99,,,-99.99,,2013-11-17 04:03:00,
2013-11-16 23:14:00,54.0,53.0,-100.00,South,182,5.0,7.0,100,0.00,,,0.45,,2013-11-17 04:14:00,
2013-11-16 23:24:00,54.0,54.0,-100.00,South,179,5.0,6.0,100,0.00,,,0.36,,2013-11-17 04:24:00,
2013-11-16 23:35:00,54.0,54.0,-100.00,South,179,5.0,6.0,100,0.00,,,0.36,,2013-11-17 04:35:00,
2013-11-16 23:53:00,54.0,54.0,-100.00,South,178,6.0,9.0,100,0.00,,,0.24,,2013-11-17 04:53:00,